Latest Weather Observations for Maroochydore

IDQ60901

Issued at 5:45 pm EST Thursday 18 September 2014 (issued every 10 minutes, with the page automatically refreshed every 10 minutes)

About weather observations | Map of Brisbane area stations | Latest observations for Brisbane area | Other Formats
Station Details ID: 040861 Name: SUNSHINE COAST AIRPORT Lat: -26.60 Lon: 153.09 Height: 3.3 m
Data from the previous 72 hours. | See also: Recent months at Maroochydore
Date/Time
EST
Tmp

°C
App
Tmp
°C
Dew
Point
°C
Rel
Hum
%
Delta-T

°C
Wind Press
QNH
hPa
Press
MSL
hPa
Rain
since
9 am
mm
Dir
 
Spd
km/h
Gust
km/h
Spd
kts
Gust
kts
18/05:30pm 19.4 15.7 8.1 48 5.8 NNE 17 20 9 11 1017.3 - 0.0
18/05:00pm 20.6 17.1 7.2 42 6.8 NNE 15 19 8 10 1016.7 - 0.0
18/04:30pm 21.7 18.3 7.5 40 7.3 NE 15 20 8 11 1016.4 - 0.0
18/04:00pm 22.2 17.9 7.2 38 7.7 ENE 19 22 10 12 1016.0 - 0.0
18/03:30pm 22.7 18.4 6.9 36 8.1 ENE 19 22 10 12 1015.9 - 0.0
18/03:00pm 22.7 18.2 6.0 34 8.4 ENE 19 20 10 11 1015.9 1015.9 0.0
18/02:30pm 23.0 18.6 6.7 35 8.4 E 19 22 10 12 1015.8 - 0.0
18/02:00pm 22.7 17.8 5.2 32 8.7 E 20 28 11 15 1016.1 - 0.0
18/01:30pm 23.0 18.2 5.4 32 8.8 E 20 26 11 14 1016.5 - 0.0
18/01:00pm 23.4 19.6 7.5 36 8.3 E 17 24 9 13 1017.0 - 0.0
18/12:30pm 22.8 18.2 6.6 35 8.3 E 20 24 11 13 1017.3 - 0.0
18/12:00pm 23.9 20.2 4.3 28 9.7 SSW 13 20 7 11 1017.8 1017.8 0.0
18/11:30am 25.0 18.5 0.5 20 11.4 S 24 35 13 19 1018.1 - 0.0
18/11:00am 24.4 18.7 0.7 21 11.0 S 20 28 11 15 1018.6 - 0.0
18/10:30am 23.6 18.7 1.9 24 10.2 WSW 17 24 9 13 1019.0 - 0.0
18/10:00am 24.2 19.2 3.5 26 10.1 S 19 30 10 16 1019.3 - 0.0
18/09:30am 22.8 16.3 0.0 22 10.3 S 24 35 13 19 1019.6 - 0.0
18/09:00am 22.1 16.3 4.2 31 8.7 SSW 24 33 13 18 1019.7 1019.7 0.0
18/08:30am 21.2 16.1 3.9 32 8.3 SSW 20 30 11 16 1019.4 - 0.0
18/08:00am 19.8 16.5 8.2 47 6.0 SW 15 20 8 11 1019.3 - 0.0
18/07:30am 17.3 15.8 10.4 64 3.7 WSW 9 13 5 7 1019.1 - 0.0
18/07:00am 14.4 12.6 11.0 80 1.8 SW 11 13 6 7 1018.7 - 0.0
18/06:30am 11.9 10.0 10.6 92 0.7 SW 11 13 6 7 1018.2 - 0.0
18/06:00am 9.5 7.1 8.6 94 0.4 WSW 11 13 6 7 1018.0 1018.0 0.0
18/05:30am 9.6 7.9 8.5 93 0.5 W 7 9 4 5 1017.6 - 0.0
18/05:00am 10.3 8.5 9.4 94 0.4 WNW 9 11 5 6 1017.4 - 0.0
18/04:30am 10.9 9.6 10.1 95 0.4 W 7 9 4 5 1017.1 - 0.0
18/04:00am 10.8 9.1 9.9 94 0.5 W 9 11 5 6 1016.6 - 0.0
18/03:30am 10.7 9.3 9.6 93 0.6 WSW 7 11 4 6 1016.2 - 0.0
18/03:00am 11.1 9.0 9.9 92 0.6 W 11 11 6 6 1016.1 1016.1 0.0
18/02:30am 12.6 11.7 11.5 93 0.6 SW 7 9 4 5 1015.8 - 0.0
18/02:00am 12.3 10.5 11.0 92 0.7 WNW 11 13 6 7 1015.7 - 0.0
18/01:30am 13.2 12.1 12.1 93 0.6 W 9 13 5 7 1015.5 - 0.0
18/01:00am 13.9 12.0 13.0 94 0.5 WNW 15 17 8 9 1015.4 - 0.0
18/12:30am 14.4 12.6 13.4 94 0.6 W 15 17 8 9 1015.2 - 0.0
18/12:00am 14.8 14.3 13.8 94 0.6 WNW 9 11 5 6 1015.1 1015.1 0.0
 
Date/Time
EST
Tmp

°C
App
Tmp
°C
Dew
Point
°C
Rel
Hum
%
Delta-T

°C
Wind Press
QNH
hPa
Press
MSL
hPa
Rain
since
9 am
mm
Dir
 
Spd
km/h
Gust
km/h
Spd
kts
Gust
kts
17/11:30pm 15.1 15.3 14.1 94 0.6 W 6 9 3 5 1014.9 - 0.0
17/11:00pm 15.5 15.6 14.5 94 0.6 WNW 7 9 4 5 1014.9 - 0.0
17/10:30pm 15.5 17.0 14.7 95 0.5 CALM 0 6 0 3 1014.9 - 0.0
17/10:00pm 15.2 15.2 14.2 94 0.6 W 7 11 4 6 1014.7 - 0.0
17/09:30pm 15.1 14.7 14.1 94 0.6 WNW 9 11 5 6 1014.6 - 0.0
17/09:28pm 14.9 14.4 13.9 94 0.6 WNW 9 11 5 6 1014.6 - 0.0
17/09:00pm 14.6 14.5 13.3 92 0.7 W 6 9 3 5 1014.2 1014.2 0.0
17/08:41pm 15.0 14.8 13.7 92 0.7 NW 7 9 4 5 1014.2 - 0.0
17/08:30pm 15.1 15.5 13.6 91 0.8 SW 4 9 2 5 1014.0 - 0.0
17/08:25pm 16.0 16.4 14.7 92 0.7 SSW 6 9 3 5 1014.0 - 0.0
17/08:06pm 15.7 15.3 14.1 90 0.9 W 9 11 5 6 1013.9 - 0.0
17/08:00pm 16.3 16.5 14.8 91 0.9 NW 7 9 4 5 1013.8 - 0.0
17/07:30pm 16.7 17.2 14.9 89 1.0 W 6 9 3 5 1013.4 - 0.0
17/07:00pm 17.9 18.2 16.1 89 1.1 W 9 13 5 7 1013.0 - 0.0
17/06:30pm 18.8 20.7 15.7 82 1.8 CALM 0 0 0 0 1012.5 - 0.0
17/06:00pm 19.4 19.5 16.4 83 1.8 N 11 15 6 8 1012.0 1012.0 0.0
17/05:30pm 21.1 22.0 17.5 80 2.2 NE 9 11 5 6 1011.7 - 0.0
17/05:00pm 22.2 22.5 17.8 76 2.7 NE 13 17 7 9 1011.6 - 0.0
17/04:30pm 23.2 22.9 17.4 70 3.6 NE 15 20 8 11 1011.6 - 0.0
17/04:00pm 23.6 23.9 17.8 70 3.6 NE 13 17 7 9 1011.5 - 0.0
17/03:30pm 24.2 23.4 17.9 68 3.9 NE 19 22 10 12 1011.2 - 0.0
17/03:00pm 24.2 22.4 17.0 64 4.4 NNE 22 28 12 15 1011.3 1011.3 0.0
17/02:30pm 25.4 23.9 16.8 59 5.3 NE 20 28 11 15 1011.6 - 0.0
17/02:00pm 25.2 23.9 16.9 60 5.1 NE 19 24 10 13 1012.0 - 0.0
17/01:30pm 25.0 22.8 14.5 52 6.2 ENE 19 24 10 13 1012.3 - 0.0
17/01:00pm 25.9 22.8 14.4 49 6.9 NE 24 30 13 16 1012.7 - 0.0
17/12:30pm 26.5 24.0 15.2 49 6.8 NE 22 28 12 15 1013.1 - 0.0
17/12:00pm 25.9 23.7 17.0 58 5.5 NNE 24 28 13 15 1013.5 1013.5 0.0
17/11:30am 25.5 23.5 16.4 57 5.6 NNE 22 28 12 15 1013.9 - 0.0
17/11:00am 26.2 24.4 15.6 52 6.4 NNE 19 24 10 13 1014.4 - 0.0
17/10:30am 26.1 23.5 13.2 44 7.5 NNE 19 26 10 14 1014.9 - 0.0
17/10:00am 25.7 25.3 12.9 45 7.4 W 7 19 4 10 1015.2 - 0.0
17/09:30am 24.4 23.4 13.3 50 6.5 NW 11 17 6 9 1015.6 - 0.0
17/09:00am 23.0 20.8 14.3 58 5.1 NW 19 26 10 14 1015.9 1015.9 0.2
17/08:30am 22.3 21.2 15.4 65 4.1 NNW 15 20 8 11 1015.7 - 0.2
17/08:00am 20.6 20.3 15.4 72 3.1 NNW 11 15 6 8 1015.7 - 0.2
17/07:30am 19.6 20.0 16.3 81 2.0 WNW 9 15 5 8 1015.7 - 0.2
17/07:00am 17.8 17.2 15.6 87 1.3 WNW 13 20 7 11 1015.2 - 0.2
17/06:30am 16.7 15.6 15.4 92 0.8 NNW 15 20 8 11 1015.0 - 0.2
17/06:00am 15.8 15.9 14.5 92 0.7 NNW 7 9 4 5 1014.8 1014.8 0.2
17/05:30am 16.0 15.4 14.7 92 0.7 NNW 11 13 6 7 1014.8 - 0.0
17/05:00am 16.1 15.9 14.6 91 0.9 NNW 9 11 5 6 1014.5 - 0.0
17/04:30am 16.1 15.9 14.6 91 0.9 NNW 9 13 5 7 1014.4 - 0.0
17/04:00am 16.6 15.8 15.0 90 0.9 NNW 13 17 7 9 1014.0 - 0.0
17/03:30am 16.7 15.9 15.1 90 0.9 NNW 13 19 7 10 1013.9 - 0.0
17/03:00am 16.5 15.7 15.0 91 0.9 NNW 13 17 7 9 1013.9 1013.9 0.0
17/02:30am 16.2 15.5 14.4 89 1.0 NW 11 15 6 8 1013.8 - 0.0
17/02:00am 16.6 16.0 14.6 88 1.1 NW 11 15 6 8 1014.0 - 0.0
17/01:30am 17.1 15.8 14.9 87 1.3 NW 15 20 8 11 1014.2 - 0.0
17/01:00am 16.9 15.9 14.7 87 1.3 NW 13 17 7 9 1014.2 - 0.0
17/12:30am 16.8 16.1 14.4 86 1.4 NW 11 15 6 8 1014.5 - 0.0
17/12:00am 17.3 16.8 14.8 85 1.4 NW 11 17 6 9 1014.6 1014.6 0.0
 
Date/Time
EST
Tmp

°C
App
Tmp
°C
Dew
Point
°C
Rel
Hum
%
Delta-T

°C
Wind Press
QNH
hPa
Press
MSL
hPa
Rain
since
9 am
mm
Dir
 
Spd
km/h
Gust
km/h
Spd
kts
Gust
kts
16/11:30pm 17.5 17.3 14.6 83 1.7 NW 9 15 5 8 1014.8 - 0.0
16/11:00pm 17.7 16.8 14.8 83 1.7 NNW 13 19 7 10 1014.6 - 0.0
16/10:30pm 17.9 16.0 14.2 79 2.1 N 17 22 9 12 1014.6 - 0.0
16/10:00pm 17.0 15.1 11.9 72 2.8 N 13 15 7 8 1014.6 - 0.0
16/09:30pm 18.1 15.8 11.9 67 3.4 NNW 15 20 8 11 1014.7 - 0.0
16/09:00pm 19.5 16.0 12.3 63 4.0 N 22 32 12 17 1014.3 1014.3 0.0
16/08:30pm 17.2 14.0 10.1 63 3.8 N 17 20 9 11 1014.3 - 0.0
16/08:00pm 18.5 17.2 11.3 63 3.9 W 9 11 5 6 1014.3 - 0.0
16/07:30pm 19.2 16.9 10.5 57 4.7 NNW 13 20 7 11 1013.9 - 0.0
16/07:00pm 20.8 20.2 15.6 72 3.1 WNW 13 20 7 11 1013.9 - 0.0
16/06:30pm 21.1 18.3 17.3 79 2.3 N 28 35 15 19 1012.6 - 0.0
16/06:00pm 20.9 18.9 17.3 80 2.2 N 24 32 13 17 1012.3 1012.3 0.0
16/05:30pm 21.1 17.5 17.1 78 2.4 N 32 44 17 24 1012.0 - 0.0
16/05:00pm 21.7 18.1 17.3 76 2.7 N 32 43 17 23 1011.8 - 0.0
16/04:30pm 22.4 18.4 17.5 74 3.0 N 35 46 19 25 1011.8 - 0.0
16/04:00pm 23.1 18.8 16.9 68 3.8 N 35 48 19 26 1011.8 - 0.0
16/03:30pm 23.8 17.9 15.8 61 4.8 N 41 57 22 31 1011.6 - 0.0
16/03:00pm 24.1 19.3 16.6 63 4.6 N 37 50 20 27 1011.8 1011.8 0.0
16/02:30pm 23.9 19.1 16.7 64 4.4 N 37 50 20 27 1012.1 - 0.0
16/02:00pm 24.3 20.3 17.5 66 4.2 N 35 46 19 25 1012.6 - 0.0
16/01:30pm 24.3 20.8 17.8 67 4.1 N 33 43 18 23 1013.1 - 0.0
16/01:00pm 24.5 21.3 18.2 68 4.0 NNE 32 41 17 22 1013.8 - 0.0
16/12:30pm 24.6 22.1 18.1 67 4.1 NNE 28 43 15 23 1014.3 - 0.0
16/12:00pm 24.2 21.0 17.2 65 4.3 NNE 30 39 16 21 1014.9 1014.9 0.0
16/11:30am 24.3 20.9 16.8 63 4.6 NNE 30 37 16 20 1015.6 - 0.0
16/11:00am 24.6 22.5 17.1 63 4.6 NNE 24 33 13 18 1016.1 - 0.0
16/10:30am 26.4 25.1 14.8 49 7.0 NNW 15 26 8 14 1016.8 - 0.0
16/10:00am 25.2 23.8 15.5 55 5.9 NNW 17 24 9 13 1016.9 - 0.0
16/09:30am 23.5 20.9 14.8 58 5.2 NW 22 30 12 16 1017.3 - 0.0
16/09:00am 22.6 20.5 16.2 67 3.9 NW 22 35 12 19 1017.7 1017.7 0.2
16/08:30am 21.1 20.9 16.7 76 2.7 NNW 13 17 7 9 1017.9 - 0.2
16/08:00am 19.3 18.4 15.8 80 2.1 NNW 15 20 8 11 1017.8 - 0.2
16/07:30am 17.9 16.5 15.5 86 1.4 NW 17 24 9 13 1017.9 - 0.2
16/07:00am 16.5 16.0 15.0 91 0.9 NNW 11 15 6 8 1017.8 - 0.2
16/06:30am 15.0 14.6 14.0 94 0.6 NNW 9 13 5 7 1017.5 - 0.2
16/06:00am 13.8 12.7 13.0 95 0.4 NNW 11 13 6 7 1017.2 1017.2 0.2
16/05:30am 13.5 12.3 12.7 95 0.4 N 11 13 6 7 1016.9 - 0.2
16/05:00am 13.4 12.0 12.3 93 0.6 N 11 11 6 6 1016.5 - 0.2
16/04:30am 14.1 13.3 13.0 93 0.6 NNW 9 13 5 7 1016.3 - 0.2
16/04:00am 14.4 13.4 13.3 93 0.6 NNW 11 15 6 8 1016.1 - 0.2
16/03:30am 14.4 13.4 13.4 94 0.6 NNW 11 13 6 7 1016.0 - 0.2
16/03:00am 13.8 12.9 12.7 93 0.6 NNW 9 11 5 6 1015.9 1015.9 0.2
16/02:30am 14.1 13.3 12.8 92 0.7 NNW 9 11 5 6 1015.8 - 0.2
16/02:00am 14.0 13.1 12.7 92 0.7 NW 9 13 5 7 1015.8 - 0.2
16/01:30am 14.0 12.8 12.7 92 0.7 NW 11 15 6 8 1015.9 - 0.2
16/01:00am 14.4 13.7 13.1 92 0.7 NW 9 11 5 6 1016.3 - 0.2
16/12:30am 14.1 13.2 12.7 91 0.8 NW 9 11 5 6 1016.6 - 0.2
16/12:00am 14.3 13.1 12.9 91 0.8 NW 11 13 6 7 1016.7 1016.7 0.2
 
Date/Time
EST
Tmp

°C
App
Tmp
°C
Dew
Point
°C
Rel
Hum
%
Delta-T

°C
Wind Press
QNH
hPa
Press
MSL
hPa
Rain
since
9 am
mm
Dir
 
Spd
km/h
Gust
km/h
Spd
kts
Gust
kts
15/11:30pm 14.7 13.5 12.9 89 1.0 NNW 11 11 6 6 1016.8 - 0.2
15/11:00pm 15.1 14.4 13.3 89 1.0 NNW 9 11 5 6 1016.9 - 0.2
15/10:30pm 15.4 14.5 13.6 89 1.0 NNW 11 13 6 7 1017.0 - 0.2
15/10:00pm 15.7 14.7 13.5 87 1.2 NW 11 13 6 7 1017.2 - 0.2
15/09:30pm 16.0 14.8 14.0 88 1.1 NW 13 15 7 8 1017.3 - 0.2
15/09:00pm 16.3 15.9 14.1 87 1.2 NW 9 13 5 7 1017.3 1017.3 0.2
15/08:30pm 16.6 15.9 14.2 86 1.4 NW 11 13 6 7 1017.1 - 0.2
15/08:00pm 17.5 17.0 14.8 84 1.6 NW 11 15 6 8 1017.0 - 0.2
15/07:30pm 17.8 16.8 14.5 81 1.9 N 13 17 7 9 1016.7 - 0.2
15/07:00pm 18.5 17.3 15.0 80 2.0 N 15 20 8 11 1016.3 - 0.2
15/06:30pm 18.9 17.3 15.0 78 2.3 N 17 20 9 11 1016.1 - 0.2
15/06:00pm 19.0 17.4 15.1 78 2.3 N 17 20 9 11 1015.8 1015.8 0.2

Latest Capital City Observations: Canberra | Sydney | Melbourne | Brisbane | Adelaide | Perth | Hobart | Darwin

Other Formats:

Comma delimited format used in spreadsheet applications
http://www.bom.gov.au/fwo/IDQ60901/IDQ60901.94569.axf

JavaScript Object Notation format (JSON) in row-major order
http://www.bom.gov.au/fwo/IDQ60901/IDQ60901.94569.json